Terminal Aerodrome Forecast
Issued by NWS

Home | Current Version | Previous Version | Text Only | Print | Product List | Glossary On
Versions: 1 2 3 4 5 6 7 8 9 10 11 12 13 14 15 16 17 18 19 20 21 22 23 24 25 26 27 28 29 30 31 32 33 34 35 36 37 38 39 40 41 42
000
FTUS42 KKEY 192033 AAB
TAFMTH
TAF AMD
KMTH 192033Z 1921/2018 18013G20KT P6SM VCTS SCT020CB BKN080
      TEMPO 1921/1922 20018G28KT 2SM +TSRA BR BKN020CB OVC050
     FM192300 22017G25KT P6SM VCTS SCT025CB BKN050
      TEMPO 2000/2004 28018G28KT 3SM SHRA BKN020
     FM200400 29014G19KT P6SM VCSH BKN025
     FM200900 30012G18KT P6SM FEW035 SCT060=

USA.gov is the U.S. government's official web portal to all federal, state and local government web resources and services.